Stations météo

réclame
Mon MeteoGroup
Abisko, Suède (2022): Température de l'air & dewpoint: 17.09.2019 13:00:00 - 23.09.2019 13:00:00 (CEST)Abisko, Suède (2022): Vitesse du vent & gusts: 17.09.2019 13:00:00 - 23.09.2019 13:00:00 (CEST)Abisko, Suède (2022): Direction du vent: 17.09.2019 13:00:00 - 23.09.2019 13:00:00 (CEST)Abisko, Suède (2022): reduced air pressure: 17.09.2019 13:00:00 - 23.09.2019 13:00:00 (CEST)Abisko, Suède (2022): Quantités de précipitations: 17.09.2019 13:00:00 - 23.09.2019 13:00:00 (CEST)
Date & Time tt [°C] td [°C] ff [km/h] ff [knt] fx [km/h] fx [knt] dd ppp [hPa] rr [mm]
23.09.2019 13:00:00 - - - - - - - - -
23.09.2019 12:00:00 3,5 -3,7 9 5 11 6 ENE 1022,9 0,0
23.09.2019 11:00:00 3,0 -3,3 4 2 12 7 NE 1023,8 0,0
23.09.2019 10:00:00 1,4 -4,8 9 5 16 8 SSW 1024,2 0,0
23.09.2019 09:00:00 -0,5 -5,7 13 7 19 10 SSW 1024,8 0,0
23.09.2019 08:00:00 -1,9 -6,1 16 9 24 13 SSW 1024,9 0,0
23.09.2019 07:00:00 -2,2 -6,1 18 10 27 14 SSW 1025,2 0,0
23.09.2019 06:00:00 -2,2 -5,8 17 9 22 12 SSW 1025,4 0,0
23.09.2019 05:00:00 -2,0 -5,7 16 9 24 13 SSW 1025,4 0,0
23.09.2019 04:00:00 -1,5 -5,3 17 9 27 14 SSW 1025,5 0,0
23.09.2019 03:00:00 -1,6 -4,9 19 10 26 14 SSW 1025,7 0,0
23.09.2019 02:00:00 -0,9 -4,5 16 8 24 13 SSW 1025,9 0,0
23.09.2019 01:00:00 -0,8 -3,7 14 8 22 12 SSW 1025,8 0,0
23.09.2019 00:00:00 -1,2 -3,2 7 4 13 7 SW 1025,7 0,0
22.09.2019 23:00:00 0,4 -2,6 10 5 12 6 SSW 1025,6 0,0
22.09.2019 22:00:00 1,7 -2,4 4 2 12 6 S 1025,5 0,0
22.09.2019 21:00:00 2,5 -2,5 11 6 16 8 SSW 1025,4 0,0
22.09.2019 20:00:00 3,2 -1,9 4 2 10 5 SW 1025,2 0,0
22.09.2019 19:00:00 3,5 -2,7 2 1 18 10 SSW 1025,0 0,0
22.09.2019 18:00:00 4,1 -2,5 10 5 21 11 NW 1024,8 0,0
22.09.2019 17:00:00 4,4 -2,0 9 5 19 10 NW 1024,5 0,0
22.09.2019 16:00:00 4,5 -3,0 7 4 21 11 NW 1024,7 0,0
22.09.2019 15:00:00 4,4 -1,7 14 8 27 14 NNW 1024,7 0,0
22.09.2019 14:00:00 5,2 -3,2 9 5 20 11 NW 1024,2 0,0
22.09.2019 13:00:00 4,9 -3,0 10 5 22 12 WNW 1024,1 0,0
22.09.2019 12:00:00 4,6 -3,4 12 6 23 12 W 1023,8 0,0
22.09.2019 11:00:00 4,3 -3,0 11 6 19 11 NW 1023,5 0,0
22.09.2019 10:00:00 3,6 -3,7 9 5 23 12 W 1023,4 0,0
22.09.2019 09:00:00 3,3 -3,8 11 6 18 10 WNW 1023,1 0,0
22.09.2019 08:00:00 3,0 -3,4 9 5 - - W 1022,6 0,0
22.09.2019 07:00:00 1,5 -3,9 10 5 18 10 SW 1022,3 0,0
22.09.2019 06:00:00 0,8 -4,1 9 5 23 13 WSW 1021,8 0,0
22.09.2019 05:00:00 2,2 -3,7 7 4 23 12 WSW 1021,0 0,0
22.09.2019 04:00:00 1,9 -3,6 9 5 16 9 WSW 1020,4 0,0
22.09.2019 03:00:00 1,5 -4,3 10 6 22 12 SSW 1020,2 0,0
22.09.2019 02:00:00 2,1 -4,1 17 9 27 14 W 1019,6 0,0
22.09.2019 01:00:00 1,9 -3,1 16 9 24 13 W 1019,1 0,0
22.09.2019 00:00:00 2,4 -3,7 14 7 24 13 WNW 1018,3 0,0
21.09.2019 23:00:00 1,6 -3,2 9 5 31 17 SSW 1018,1 0,0
21.09.2019 22:00:00 1,6 -3,7 10 6 26 14 W 1017,0 0,0
21.09.2019 21:00:00 1,4 -3,0 12 6 23 12 WSW 1016,6 0,0
21.09.2019 20:00:00 2,1 -3,3 12 7 30 16 WNW 1015,9 0,0
21.09.2019 19:00:00 2,0 -3,5 11 6 22 12 W 1015,5 0,0
21.09.2019 18:00:00 3,0 -2,9 17 9 34 19 WNW 1014,7 0,0
21.09.2019 17:00:00 4,0 -2,0 17 9 - - NW 1013,9 0,0
21.09.2019 16:00:00 3,7 -3,1 16 9 34 18 W 1013,3 0,0
21.09.2019 15:00:00 3,7 -3,2 8 5 31 17 W 1013,3 0,0
21.09.2019 14:00:00 3,4 -2,8 16 9 33 18 W 1012,7 0,0
21.09.2019 13:00:00 3,1 -2,5 10 5 31 17 ESE 1012,2 0,0
21.09.2019 12:00:00 3,2 -3,1 17 9 33 18 W 1011,8 0,0
21.09.2019 11:00:00 3,4 -3,2 18 10 32 17 W 1011,3 0,0
21.09.2019 10:00:00 4,4 -2,2 16 9 31 17 W 1010,6 0,0
21.09.2019 09:00:00 2,1 -0,9 18 10 29 16 WSW 1010,7 0,0
21.09.2019 08:00:00 2,5 -1,8 5 3 21 12 WSW 1010,3 0,0
21.09.2019 07:00:00 2,0 -2,4 10 5 28 15 SSW 1010,1 0,0
21.09.2019 06:00:00 1,1 -2,8 14 8 24 13 SSW 1010,0 0,0
21.09.2019 05:00:00 1,3 -3,2 16 8 22 12 SW 1009,7 0,0
21.09.2019 04:00:00 0,5 -3,3 15 8 23 12 SSW 1010,0 0,0
21.09.2019 03:00:00 -0,8 -3,4 12 7 19 10 SSW 1010,4 0,0
21.09.2019 02:00:00 -0,9 -3,3 10 6 17 9 SSW 1010,3 0,0
21.09.2019 01:00:00 -0,2 -2,8 12 7 16 9 SSW 1010,1 0,0
21.09.2019 00:00:00 0,7 -2,6 13 7 18 10 SSW 1010,0 0,0
20.09.2019 23:00:00 0,7 -2,4 14 8 17 9 SSW 1010,4 0,0
20.09.2019 22:00:00 0,4 -2,6 11 6 14 8 SSW 1010,4 0,0
20.09.2019 21:00:00 0,9 -2,7 8 4 14 8 SSW 1010,6 0,0
20.09.2019 20:00:00 1,6 -2,8 5 3 14 8 WSW 1010,7 0,0
20.09.2019 19:00:00 2,9 -3,8 4 2 13 7 SSW 1010,7 0,0
20.09.2019 18:00:00 3,3 -3,2 9 5 21 12 WNW 1010,5 0,0
20.09.2019 17:00:00 4,7 -2,6 13 7 26 14 NW 1010,5 0,0
20.09.2019 16:00:00 4,9 -1,0 13 7 29 16 NW 1010,7 0,0
20.09.2019 15:00:00 4,5 -0,5 10 5 23 12 N 1011,4 0,0
20.09.2019 14:00:00 4,2 -0,9 13 7 24 13 NW 1012,0 0,0
20.09.2019 13:00:00 4,3 -1,3 16 8 29 15 NNW 1012,1 0,0
20.09.2019 12:00:00 4,8 -2,1 13 7 25 14 NW 1012,2 0,0
20.09.2019 11:00:00 4,4 -2,4 8 4 26 14 NW 1012,2 0,0
20.09.2019 10:00:00 4,1 -2,6 14 8 29 15 SSW 1012,4 0,0
20.09.2019 09:00:00 3,0 -2,5 9 5 18 10 SW 1012,8 0,0
20.09.2019 08:00:00 1,9 -2,1 9 5 23 12 S 1013,0 0,0
20.09.2019 07:00:00 1,5 -1,4 11 6 27 15 SSW 1013,4 0,0
20.09.2019 06:00:00 1,4 -1,9 13 7 31 17 WSW 1013,7 0,0
20.09.2019 05:00:00 2,7 -3,1 22 12 37 20 WSW 1013,6 0,0
20.09.2019 04:00:00 3,0 -2,4 13 7 39 21 W 1013,9 0,0
20.09.2019 03:00:00 2,8 -3,1 24 13 43 23 W 1013,6 0,0
20.09.2019 02:00:00 3,0 -3,0 27 15 47 26 W 1014,1 0,0
20.09.2019 01:00:00 1,8 -1,3 20 11 43 23 WSW 1014,4 0,0
20.09.2019 00:00:00 2,8 -2,7 27 15 46 25 W 1014,4 0,0
19.09.2019 23:00:00 2,9 -3,5 26 14 43 23 W 1014,3 0,0
19.09.2019 22:00:00 2,4 -3,5 28 15 48 26 W 1014,4 0,0
19.09.2019 21:00:00 2,2 -1,2 25 14 51 28 W 1015,0 0,0
19.09.2019 20:00:00 2,8 -2,2 24 13 44 24 W 1014,6 0,0
19.09.2019 19:00:00 2,9 -2,9 26 14 46 25 W 1014,6 0,0
19.09.2019 18:00:00 2,7 -0,9 18 10 45 24 WNW 1015,1 0,0
19.09.2019 17:00:00 2,4 -0,3 26 14 46 25 NW 1015,3 0,0
19.09.2019 16:00:00 4,0 -1,4 20 11 49 26 WNW 1014,9 0,0
19.09.2019 15:00:00 4,3 -1,0 20 11 52 28 WNW 1015,0 0,0
19.09.2019 14:00:00 4,4 -0,9 30 16 50 27 W 1014,8 0,0
19.09.2019 13:00:00 4,7 -2,6 24 13 44 24 W 1014,7 0,0
19.09.2019 12:00:00 3,3 -3,0 29 16 49 27 W 1014,6 0,0
19.09.2019 11:00:00 3,1 -3,4 29 16 45 24 W 1014,2 0,0
19.09.2019 10:00:00 2,8 -2,8 18 10 44 24 W 1014,3 0,0
19.09.2019 09:00:00 2,8 -3,4 27 15 44 24 W 1014,0 0,0
19.09.2019 08:00:00 2,2 -2,7 18 10 43 23 W 1014,1 0,0
19.09.2019 07:00:00 2,1 -3,2 21 11 42 23 W 1014,1 0,0
19.09.2019 06:00:00 2,1 -3,7 22 12 45 25 W 1014,3 0,0
19.09.2019 05:00:00 1,6 -3,7 22 12 46 25 W 1014,2 0,0
19.09.2019 04:00:00 0,7 -3,1 4 2 24 13 NNW 1014,8 0,0
19.09.2019 03:00:00 0,3 -2,6 6 3 17 9 SW 1015,1 0,0
19.09.2019 02:00:00 0,5 -2,8 10 5 33 18 W 1015,1 0,0
19.09.2019 01:00:00 0,3 -1,2 24 13 46 25 WNW 1015,3 0,0
19.09.2019 00:00:00 1,4 -1,7 18 10 37 20 WNW 1014,7 0,0
18.09.2019 23:00:00 0,7 -0,3 16 9 36 19 NW 1014,8 0,0
18.09.2019 22:00:00 0,9 -1,3 8 4 19 10 W 1014,3 0,0
18.09.2019 21:00:00 2,0 -2,2 12 7 19 11 W 1014,2 0,0
18.09.2019 20:00:00 2,3 -2,5 11 6 - - W 1014,0 0,0
18.09.2019 19:00:00 2,6 -1,5 9 5 24 13 WNW 1013,5 0,0
18.09.2019 18:00:00 3,3 -0,3 18 10 29 16 NNW 1013,1 0,0
18.09.2019 17:00:00 4,2 -1,7 11 6 33 18 WNW 1012,6 0,0
18.09.2019 16:00:00 4,1 -0,2 12 7 29 16 NW 1012,1 0,0
18.09.2019 15:00:00 4,0 2,4 6 3 13 7 SE 1011,8 0,0
18.09.2019 14:00:00 3,6 2,6 6 4 10 5 ESE 1011,6 0,0
18.09.2019 13:00:00 2,8 1,8 4 2 13 7 ESE 1011,3 0,0
18.09.2019 12:00:00 2,0 1,2 8 4 12 6 ESE 1011,1 0,0
18.09.2019 11:00:00 2,1 1,4 4 2 9 5 E 1010,7 0,0
18.09.2019 10:00:00 2,6 1,6 5 3 12 7 E 1009,9 0,0
18.09.2019 09:00:00 2,8 2,1 9 5 13 7 ENE 1009,4 0,0
18.09.2019 08:00:00 2,6 1,9 0 0 7 4 N 1009,0 0,0
18.09.2019 07:00:00 2,2 1,5 4 2 11 6 E 1008,7 0,0
18.09.2019 06:00:00 2,2 1,7 4 2 8 4 E 1008,3 0,0
18.09.2019 05:00:00 2,3 1,8 2 1 4 2 SW 1008,1 0,0
18.09.2019 04:00:00 2,5 1,9 3 2 12 6 S 1007,9 0,0
18.09.2019 03:00:00 2,8 1,5 7 4 13 7 ESE 1007,7 0,0
18.09.2019 02:00:00 3,1 1,7 7 4 11 6 SE 1007,6 0,0
18.09.2019 01:00:00 3,0 2,5 6 3 8 4 SSE 1007,4 0,0
18.09.2019 00:00:00 3,5 2,2 6 4 16 8 ESE 1007,3 0,0
17.09.2019 23:00:00 3,5 2,4 5 3 13 7 SE 1007,3 0,0
17.09.2019 22:00:00 3,7 2,4 8 5 14 8 E 1007,0 0,0
17.09.2019 21:00:00 3,6 2,6 3 2 9 5 SSW 1006,6 0,0
17.09.2019 20:00:00 4,3 2,3 4 2 8 4 E 1006,3 0,0
17.09.2019 19:00:00 4,8 2,0 2 1 11 6 E 1005,9 0,0
17.09.2019 18:00:00 5,2 1,8 8 4 18 10 E 1005,6 0,0
17.09.2019 17:00:00 5,7 2,3 10 5 19 10 ENE 1005,2 0,0
17.09.2019 16:00:00 5,8 2,6 11 6 20 11 ENE 1004,9 0,0
17.09.2019 15:00:00 6,0 1,9 13 7 20 11 ENE 1004,6 0,0
17.09.2019 14:00:00 6,4 3,0 7 4 20 11 ENE 1004,3 0,0
17.09.2019 13:00:00 6,0 2,4 13 7 24 13 ENE 1004,0 0,0

tt = Température de l'air
td = dewpoint
ff = Vitesse du vent
fx = gusts
dd = Direction du vent
ppp = reduced air pressure
rr = Quantités de précipitations

stations d'obs. à proximité